sensor_id;sensor_type;location;lat;lon;timestamp;P1;durP1;ratioP1;P2;durP2;ratioP2
66893;SDS011;53801;55.786;49.142;2022-11-15T00:00:18;9.43;;;0.90;;
66893;SDS011;53801;55.786;49.142;2022-11-15T00:02:56;4.28;;;0.82;;
66893;SDS011;53801;55.786;49.142;2022-11-15T00:05:36;1.92;;;0.55;;
66893;SDS011;53801;55.786;49.142;2022-11-15T00:08:01;4.03;;;0.60;;
66893;SDS011;53801;55.786;49.142;2022-11-15T00:10:29;7.90;;;0.70;;
66893;SDS011;53801;55.786;49.142;2022-11-15T00:12:57;2.28;;;0.60;;
66893;SDS011;53801;55.786;49.142;2022-11-15T00:15:24;5.05;;;0.90;;
66893;SDS011;53801;55.786;49.142;2022-11-15T00:18:00;3.15;;;0.80;;
66893;SDS011;53801;55.786;49.142;2022-11-15T00:20:25;2.40;;;0.57;;
66893;SDS011;53801;55.786;49.142;2022-11-15T00:23:13;2.33;;;0.67;;
66893;SDS011;53801;55.786;49.142;2022-11-15T00:25:40;3.63;;;0.55;;
66893;SDS011;53801;55.786;49.142;2022-11-15T00:28:07;2.95;;;0.80;;
66893;SDS011;53801;55.786;49.142;2022-11-15T00:30:33;5.07;;;0.80;;
66893;SDS011;53801;55.786;49.142;2022-11-15T00:33:03;2.22;;;0.68;;
66893;SDS011;53801;55.786;49.142;2022-11-15T00:35:28;1.90;;;0.50;;
66893;SDS011;53801;55.786;49.142;2022-11-15T00:37:54;4.10;;;0.60;;
66893;SDS011;53801;55.786;49.142;2022-11-15T00:40:19;2.37;;;0.70;;
66893;SDS011;53801;55.786;49.142;2022-11-15T00:42:45;2.67;;;0.67;;
66893;SDS011;53801;55.786;49.142;2022-11-15T00:45:10;1.92;;;0.57;;
66893;SDS011;53801;55.786;49.142;2022-11-15T00:47:36;2.57;;;0.63;;
66893;SDS011;53801;55.786;49.142;2022-11-15T00:50:01;3.50;;;0.40;;
66893;SDS011;53801;55.786;49.142;2022-11-15T00:52:28;2.80;;;0.77;;
66893;SDS011;53801;55.786;49.142;2022-11-15T00:54:53;3.17;;;0.50;;
66893;SDS011;53801;55.786;49.142;2022-11-15T00:57:19;2.83;;;0.53;;
66893;SDS011;53801;55.786;49.142;2022-11-15T00:59:44;3.08;;;0.80;;
66893;SDS011;53801;55.786;49.142;2022-11-15T01:02:14;1.80;;;0.40;;
66893;SDS011;53801;55.786;49.142;2022-11-15T01:04:39;2.95;;;0.60;;
66893;SDS011;53801;55.786;49.142;2022-11-15T01:07:05;2.20;;;0.50;;
66893;SDS011;53801;55.786;49.142;2022-11-15T01:09:30;3.90;;;0.70;;
66893;SDS011;53801;55.786;49.142;2022-11-15T01:11:55;2.07;;;0.50;;
66893;SDS011;53801;55.786;49.142;2022-11-15T01:14:21;1.97;;;0.50;;
66893;SDS011;53801;55.786;49.142;2022-11-15T01:16:46;4.23;;;0.67;;
66893;SDS011;53801;55.786;49.142;2022-11-15T01:19:12;1.42;;;0.50;;
66893;SDS011;53801;55.786;49.142;2022-11-15T01:21:37;2.67;;;0.47;;
66893;SDS011;53801;55.786;49.142;2022-11-15T01:24:02;2.93;;;0.50;;
66893;SDS011;53801;55.786;49.142;2022-11-15T01:26:28;2.90;;;0.63;;
66893;SDS011;53801;55.786;49.142;2022-11-15T01:28:53;4.67;;;0.60;;
66893;SDS011;53801;55.786;49.142;2022-11-15T01:31:20;2.38;;;0.50;;
66893;SDS011;53801;55.786;49.142;2022-11-15T01:33:46;3.03;;;0.40;;
66893;SDS011;53801;55.786;49.142;2022-11-15T01:36:13;2.08;;;0.75;;
66893;SDS011;53801;55.786;49.142;2022-11-15T01:38:38;1.55;;;0.50;;
66893;SDS011;53801;55.786;49.142;2022-11-15T01:41:04;3.83;;;0.50;;
66893;SDS011;53801;55.786;49.142;2022-11-15T01:43:33;2.97;;;0.57;;
66893;SDS011;53801;55.786;49.142;2022-11-15T01:51:26;2.72;;;0.60;;
66893;SDS011;53801;55.786;49.142;2022-11-15T01:54:01;2.72;;;0.70;;
66893;SDS011;53801;55.786;49.142;2022-11-15T01:56:40;2.78;;;0.70;;
66893;SDS011;53801;55.786;49.142;2022-11-15T01:59:06;1.73;;;0.50;;
66893;SDS011;53801;55.786;49.142;2022-11-15T02:01:33;2.55;;;0.80;;
66893;SDS011;53801;55.786;49.142;2022-11-15T02:04:04;6.00;;;0.90;;
66893;SDS011;53801;55.786;49.142;2022-11-15T02:06:31;2.00;;;0.70;;
66893;SDS011;53801;55.786;49.142;2022-11-15T02:09:19;4.57;;;1.60;;
66893;SDS011;53801;55.786;49.142;2022-11-15T02:11:45;6.68;;;0.60;;
66893;SDS011;53801;55.786;49.142;2022-11-15T02:14:11;2.90;;;0.57;;
66893;SDS011;53801;55.786;49.142;2022-11-15T02:29:49;2.92;;;0.90;;
66893;SDS011;53801;55.786;49.142;2022-11-15T02:37:30;3.42;;;0.80;;
66893;SDS011;53801;55.786;49.142;2022-11-15T02:40:06;4.43;;;0.80;;
66893;SDS011;53801;55.786;49.142;2022-11-15T02:42:35;4.07;;;0.70;;
66893;SDS011;53801;55.786;49.142;2022-11-15T02:46:03;2.53;;;0.55;;
66893;SDS011;53801;55.786;49.142;2022-11-15T02:48:08;2.25;;;0.40;;
66893;SDS011;53801;55.786;49.142;2022-11-15T02:50:37;2.03;;;0.60;;
66893;SDS011;53801;55.786;49.142;2022-11-15T02:53:03;3.23;;;0.90;;
66893;SDS011;53801;55.786;49.142;2022-11-15T02:55:32;2.60;;;0.60;;
66893;SDS011;53801;55.786;49.142;2022-11-15T02:58:22;4.60;;;0.90;;
66893;SDS011;53801;55.786;49.142;2022-11-15T03:06:24;5.47;;;0.80;;
66893;SDS011;53801;55.786;49.142;2022-11-15T03:11:27;3.00;;;0.90;;
66893;SDS011;53801;55.786;49.142;2022-11-15T03:16:38;4.47;;;0.85;;
66893;SDS011;53801;55.786;49.142;2022-11-15T03:19:12;2.95;;;0.85;;
66893;SDS011;53801;55.786;49.142;2022-11-15T03:21:39;3.33;;;0.90;;
66893;SDS011;53801;55.786;49.142;2022-11-15T03:24:05;5.70;;;1.00;;
66893;SDS011;53801;55.786;49.142;2022-11-15T03:26:33;3.83;;;0.70;;
66893;SDS011;53801;55.786;49.142;2022-11-15T03:29:09;3.28;;;0.90;;
66893;SDS011;53801;55.786;49.142;2022-11-15T03:31:41;2.95;;;0.73;;
66893;SDS011;53801;55.786;49.142;2022-11-15T03:34:16;2.75;;;0.70;;
66893;SDS011;53801;55.786;49.142;2022-11-15T03:36:44;4.10;;;0.80;;
66893;SDS011;53801;55.786;49.142;2022-11-15T03:39:13;3.78;;;0.95;;
66893;SDS011;53801;55.786;49.142;2022-11-15T03:44:32;2.42;;;0.80;;
66893;SDS011;53801;55.786;49.142;2022-11-15T03:47:02;3.40;;;0.80;;
66893;SDS011;53801;55.786;49.142;2022-11-15T03:49:31;4.80;;;0.93;;
66893;SDS011;53801;55.786;49.142;2022-11-15T03:52:00;4.40;;;1.00;;
66893;SDS011;53801;55.786;49.142;2022-11-15T03:54:36;3.63;;;0.90;;
66893;SDS011;53801;55.786;49.142;2022-11-15T03:57:02;5.30;;;2.20;;
66893;SDS011;53801;55.786;49.142;2022-11-15T03:59:27;4.80;;;1.03;;
66893;SDS011;53801;55.786;49.142;2022-11-15T04:01:53;4.30;;;1.02;;
66893;SDS011;53801;55.786;49.142;2022-11-15T04:04:21;9.33;;;1.43;;
66893;SDS011;53801;55.786;49.142;2022-11-15T04:06:49;4.63;;;1.27;;
66893;SDS011;53801;55.786;49.142;2022-11-15T04:09:14;4.28;;;1.17;;
66893;SDS011;53801;55.786;49.142;2022-11-15T04:11:42;3.73;;;1.00;;
66893;SDS011;53801;55.786;49.142;2022-11-15T04:14:08;3.77;;;0.90;;
66893;SDS011;53801;55.786;49.142;2022-11-15T04:16:33;7.38;;;1.30;;
66893;SDS011;53801;55.786;49.142;2022-11-15T04:18:58;3.23;;;0.83;;
66893;SDS011;53801;55.786;49.142;2022-11-15T04:21:43;3.90;;;0.93;;
66893;SDS011;53801;55.786;49.142;2022-11-15T04:24:30;5.33;;;1.70;;
66893;SDS011;53801;55.786;49.142;2022-11-15T04:26:55;8.05;;;1.45;;
66893;SDS011;53801;55.786;49.142;2022-11-15T04:29:20;5.03;;;1.37;;
66893;SDS011;53801;55.786;49.142;2022-11-15T04:32:02;4.85;;;0.90;;
66893;SDS011;53801;55.786;49.142;2022-11-15T04:34:27;3.95;;;0.80;;
66893;SDS011;53801;55.786;49.142;2022-11-15T04:39:26;4.60;;;1.10;;
66893;SDS011;53801;55.786;49.142;2022-11-15T04:41:53;5.93;;;2.47;;
66893;SDS011;53801;55.786;49.142;2022-11-15T04:44:18;4.60;;;1.20;;
66893;SDS011;53801;55.786;49.142;2022-11-15T04:46:43;6.50;;;1.40;;
66893;SDS011;53801;55.786;49.142;2022-11-15T04:52:08;6.47;;;1.40;;
66893;SDS011;53801;55.786;49.142;2022-11-15T04:54:40;4.30;;;1.05;;
66893;SDS011;53801;55.786;49.142;2022-11-15T04:57:09;4.17;;;0.93;;
66893;SDS011;53801;55.786;49.142;2022-11-15T04:59:38;5.68;;;1.77;;
66893;SDS011;53801;55.786;49.142;2022-11-15T05:02:03;4.03;;;0.80;;
66893;SDS011;53801;55.786;49.142;2022-11-15T05:04:28;4.72;;;1.05;;
66893;SDS011;53801;55.786;49.142;2022-11-15T05:06:54;4.55;;;1.25;;
66893;SDS011;53801;55.786;49.142;2022-11-15T05:09:21;5.83;;;1.33;;
66893;SDS011;53801;55.786;49.142;2022-11-15T05:11:47;4.28;;;1.15;;
66893;SDS011;53801;55.786;49.142;2022-11-15T05:14:13;5.13;;;1.30;;
66893;SDS011;53801;55.786;49.142;2022-11-15T05:16:42;8.77;;;1.70;;
66893;SDS011;53801;55.786;49.142;2022-11-15T05:19:09;3.53;;;1.35;;
66893;SDS011;53801;55.786;49.142;2022-11-15T05:21:35;8.73;;;3.17;;
66893;SDS011;53801;55.786;49.142;2022-11-15T05:24:04;9.43;;;3.53;;
66893;SDS011;53801;55.786;49.142;2022-11-15T05:26:32;5.78;;;1.05;;
66893;SDS011;53801;55.786;49.142;2022-11-15T05:29:00;3.40;;;1.20;;
66893;SDS011;53801;55.786;49.142;2022-11-15T05:31:28;5.32;;;1.80;;
66893;SDS011;53801;55.786;49.142;2022-11-15T05:33:54;5.07;;;1.30;;
66893;SDS011;53801;55.786;49.142;2022-11-15T05:38:48;5.50;;;1.73;;
66893;SDS011;53801;55.786;49.142;2022-11-15T05:41:17;5.00;;;1.65;;
66893;SDS011;53801;55.786;49.142;2022-11-15T05:43:44;6.63;;;1.70;;
66893;SDS011;53801;55.786;49.142;2022-11-15T05:46:13;7.55;;;1.95;;
66893;SDS011;53801;55.786;49.142;2022-11-15T05:48:45;4.47;;;1.57;;
66893;SDS011;53801;55.786;49.142;2022-11-15T05:51:37;4.90;;;1.63;;
66893;SDS011;53801;55.786;49.142;2022-11-15T06:08:01;3.92;;;1.63;;
66893;SDS011;53801;55.786;49.142;2022-11-15T06:10:46;3.67;;;1.17;;
66893;SDS011;53801;55.786;49.142;2022-11-15T06:17:10;3.42;;;1.00;;
66893;SDS011;53801;55.786;49.142;2022-11-15T06:20:02;3.40;;;0.98;;
66893;SDS011;53801;55.786;49.142;2022-11-15T06:22:44;4.22;;;1.55;;
66893;SDS011;53801;55.786;49.142;2022-11-15T06:25:12;4.90;;;1.37;;
66893;SDS011;53801;55.786;49.142;2022-11-15T06:27:37;4.22;;;1.73;;
66893;SDS011;53801;55.786;49.142;2022-11-15T06:30:06;4.70;;;1.30;;
66893;SDS011;53801;55.786;49.142;2022-11-15T06:32:32;13.93;;;2.03;;
66893;SDS011;53801;55.786;49.142;2022-11-15T06:34:57;4.10;;;1.80;;
66893;SDS011;53801;55.786;49.142;2022-11-15T06:37:23;3.80;;;2.20;;
66893;SDS011;53801;55.786;49.142;2022-11-15T06:39:51;3.57;;;1.67;;
66893;SDS011;53801;55.786;49.142;2022-11-15T06:42:16;4.43;;;2.30;;
66893;SDS011;53801;55.786;49.142;2022-11-15T06:44:49;6.30;;;2.87;;
66893;SDS011;53801;55.786;49.142;2022-11-15T06:47:15;5.88;;;2.53;;
66893;SDS011;53801;55.786;49.142;2022-11-15T06:49:40;4.73;;;2.33;;
66893;SDS011;53801;55.786;49.142;2022-11-15T06:52:06;4.40;;;2.70;;
66893;SDS011;53801;55.786;49.142;2022-11-15T06:54:34;5.03;;;2.60;;
66893;SDS011;53801;55.786;49.142;2022-11-15T06:56:59;5.20;;;2.80;;
66893;SDS011;53801;55.786;49.142;2022-11-15T06:59:24;3.72;;;2.40;;
66893;SDS011;53801;55.786;49.142;2022-11-15T07:01:50;5.85;;;2.97;;
66893;SDS011;53801;55.786;49.142;2022-11-15T07:04:15;4.37;;;2.87;;
66893;SDS011;53801;55.786;49.142;2022-11-15T07:06:41;4.60;;;2.87;;
66893;SDS011;53801;55.786;49.142;2022-11-15T07:09:06;4.23;;;2.83;;
66893;SDS011;53801;55.786;49.142;2022-11-15T07:11:32;5.03;;;2.93;;
66893;SDS011;53801;55.786;49.142;2022-11-15T07:13:57;4.50;;;2.90;;
66893;SDS011;53801;55.786;49.142;2022-11-15T07:16:24;6.63;;;4.68;;
66893;SDS011;53801;55.786;49.142;2022-11-15T07:18:49;7.23;;;3.40;;
66893;SDS011;53801;55.786;49.142;2022-11-15T07:21:15;4.10;;;2.93;;
66893;SDS011;53801;55.786;49.142;2022-11-15T07:23:40;4.20;;;3.15;;
66893;SDS011;53801;55.786;49.142;2022-11-15T07:26:06;4.70;;;2.80;;
66893;SDS011;53801;55.786;49.142;2022-11-15T07:31:05;3.03;;;2.70;;
66893;SDS011;53801;55.786;49.142;2022-11-15T07:33:30;4.53;;;2.60;;
66893;SDS011;53801;55.786;49.142;2022-11-15T07:36:02;5.25;;;3.53;;
66893;SDS011;53801;55.786;49.142;2022-11-15T07:38:28;4.67;;;2.87;;
66893;SDS011;53801;55.786;49.142;2022-11-15T07:40:57;5.03;;;2.65;;
66893;SDS011;53801;55.786;49.142;2022-11-15T07:43:23;4.93;;;2.63;;
66893;SDS011;53801;55.786;49.142;2022-11-15T07:45:48;4.87;;;2.20;;
66893;SDS011;53801;55.786;49.142;2022-11-15T07:48:16;5.93;;;3.60;;
66893;SDS011;53801;55.786;49.142;2022-11-15T07:50:43;6.47;;;2.55;;
66893;SDS011;53801;55.786;49.142;2022-11-15T07:53:26;4.37;;;2.47;;
66893;SDS011;53801;55.786;49.142;2022-11-15T07:55:52;3.08;;;1.70;;
66893;SDS011;53801;55.786;49.142;2022-11-15T07:58:18;5.43;;;3.22;;
66893;SDS011;53801;55.786;49.142;2022-11-15T08:00:46;2.97;;;2.03;;
66893;SDS011;53801;55.786;49.142;2022-11-15T08:03:15;3.25;;;2.20;;
66893;SDS011;53801;55.786;49.142;2022-11-15T08:05:41;5.88;;;2.58;;
66893;SDS011;53801;55.786;49.142;2022-11-15T08:08:07;5.10;;;2.30;;
66893;SDS011;53801;55.786;49.142;2022-11-15T08:10:33;3.65;;;1.70;;
66893;SDS011;53801;55.786;49.142;2022-11-15T08:15:28;3.80;;;2.00;;
66893;SDS011;53801;55.786;49.142;2022-11-15T08:17:57;3.72;;;2.42;;
66893;SDS011;53801;55.786;49.142;2022-11-15T08:20:23;3.35;;;1.90;;
66893;SDS011;53801;55.786;49.142;2022-11-15T08:22:48;3.37;;;1.60;;
66893;SDS011;53801;55.786;49.142;2022-11-15T08:25:16;3.55;;;1.52;;
66893;SDS011;53801;55.786;49.142;2022-11-15T08:27:44;3.10;;;1.20;;
66893;SDS011;53801;55.786;49.142;2022-11-15T08:30:10;3.38;;;1.65;;
66893;SDS011;53801;55.786;49.142;2022-11-15T08:32:36;4.80;;;1.73;;
66893;SDS011;53801;55.786;49.142;2022-11-15T08:35:07;4.65;;;1.67;;
66893;SDS011;53801;55.786;49.142;2022-11-15T08:37:33;4.30;;;1.63;;
66893;SDS011;53801;55.786;49.142;2022-11-15T08:39:59;3.17;;;1.03;;
66893;SDS011;53801;55.786;49.142;2022-11-15T08:42:31;4.40;;;2.38;;
66893;SDS011;53801;55.786;49.142;2022-11-15T08:44:57;5.80;;;3.03;;
66893;SDS011;53801;55.786;49.142;2022-11-15T08:47:22;3.60;;;2.13;;
66893;SDS011;53801;55.786;49.142;2022-11-15T08:49:48;6.35;;;1.88;;
66893;SDS011;53801;55.786;49.142;2022-11-15T08:52:14;5.10;;;1.80;;
66893;SDS011;53801;55.786;49.142;2022-11-15T08:54:39;5.57;;;1.58;;
66893;SDS011;53801;55.786;49.142;2022-11-15T08:57:05;5.33;;;1.70;;
66893;SDS011;53801;55.786;49.142;2022-11-15T08:59:31;4.30;;;1.85;;
66893;SDS011;53801;55.786;49.142;2022-11-15T09:01:56;5.23;;;2.00;;
66893;SDS011;53801;55.786;49.142;2022-11-15T09:04:22;5.33;;;2.20;;
66893;SDS011;53801;55.786;49.142;2022-11-15T09:06:47;5.00;;;1.80;;
66893;SDS011;53801;55.786;49.142;2022-11-15T09:09:15;5.20;;;2.22;;
66893;SDS011;53801;55.786;49.142;2022-11-15T09:11:42;4.57;;;2.08;;
66893;SDS011;53801;55.786;49.142;2022-11-15T09:14:10;4.83;;;2.60;;
66893;SDS011;53801;55.786;49.142;2022-11-15T09:16:35;4.07;;;2.00;;
66893;SDS011;53801;55.786;49.142;2022-11-15T09:19:06;2.60;;;1.42;;
66893;SDS011;53801;55.786;49.142;2022-11-15T09:21:44;2.30;;;1.40;;
66893;SDS011;53801;55.786;49.142;2022-11-15T09:24:12;3.47;;;1.80;;
66893;SDS011;53801;55.786;49.142;2022-11-15T09:26:40;4.80;;;2.27;;
66893;SDS011;53801;55.786;49.142;2022-11-15T09:29:16;6.25;;;2.42;;
66893;SDS011;53801;55.786;49.142;2022-11-15T09:31:41;3.30;;;2.22;;
66893;SDS011;53801;55.786;49.142;2022-11-15T09:34:07;5.20;;;2.50;;
66893;SDS011;53801;55.786;49.142;2022-11-15T09:39:20;3.78;;;1.50;;
66893;SDS011;53801;55.786;49.142;2022-11-15T09:49:31;6.40;;;2.70;;
66893;SDS011;53801;55.786;49.142;2022-11-15T09:51:57;3.60;;;2.00;;
66893;SDS011;53801;55.786;49.142;2022-11-15T10:04:45;3.38;;;1.85;;
66893;SDS011;53801;55.786;49.142;2022-11-15T10:07:27;4.30;;;1.42;;
66893;SDS011;53801;55.786;49.142;2022-11-15T10:09:54;3.55;;;1.70;;
66893;SDS011;53801;55.786;49.142;2022-11-15T10:12:22;2.95;;;1.40;;
66893;SDS011;53801;55.786;49.142;2022-11-15T10:14:50;3.25;;;1.80;;
66893;SDS011;53801;55.786;49.142;2022-11-15T10:20:09;3.67;;;1.60;;
66893;SDS011;53801;55.786;49.142;2022-11-15T10:28:44;3.40;;;2.10;;
66893;SDS011;53801;55.786;49.142;2022-11-15T10:31:52;5.93;;;1.90;;
66893;SDS011;53801;55.786;49.142;2022-11-15T10:37:31;2.90;;;1.02;;
66893;SDS011;53801;55.786;49.142;2022-11-15T10:40:14;3.67;;;1.50;;
66893;SDS011;53801;55.786;49.142;2022-11-15T10:42:40;3.47;;;1.90;;
66893;SDS011;53801;55.786;49.142;2022-11-15T10:45:22;5.00;;;2.40;;
66893;SDS011;53801;55.786;49.142;2022-11-15T10:47:34;6.18;;;2.17;;
66893;SDS011;53801;55.786;49.142;2022-11-15T10:50:01;4.30;;;1.50;;
66893;SDS011;53801;55.786;49.142;2022-11-15T10:52:28;2.55;;;1.10;;
66893;SDS011;53801;55.786;49.142;2022-11-15T10:55:02;2.90;;;1.10;;
66893;SDS011;53801;55.786;49.142;2022-11-15T10:58:19;2.40;;;1.10;;
66893;SDS011;53801;55.786;49.142;2022-11-15T11:08:03;2.83;;;1.00;;
66893;SDS011;53801;55.786;49.142;2022-11-15T11:10:29;2.43;;;0.67;;
66893;SDS011;53801;55.786;49.142;2022-11-15T11:12:55;2.90;;;0.90;;
66893;SDS011;53801;55.786;49.142;2022-11-15T11:15:21;5.10;;;1.23;;
66893;SDS011;53801;55.786;49.142;2022-11-15T11:20:21;4.50;;;1.20;;
66893;SDS011;53801;55.786;49.142;2022-11-15T11:33:05;4.55;;;1.30;;
66893;SDS011;53801;55.786;49.142;2022-11-15T11:38:08;4.65;;;1.23;;
66893;SDS011;53801;55.786;49.142;2022-11-15T11:51:18;4.07;;;1.10;;
66893;SDS011;53801;55.786;49.142;2022-11-15T11:53:55;5.50;;;1.10;;
66893;SDS011;53801;55.786;49.142;2022-11-15T11:56:43;5.37;;;1.47;;
66893;SDS011;53801;55.786;49.142;2022-11-15T12:02:10;2.55;;;1.00;;
66893;SDS011;53801;55.786;49.142;2022-11-15T12:04:38;2.65;;;0.70;;
66893;SDS011;53801;55.786;49.142;2022-11-15T12:07:08;3.08;;;0.70;;
66893;SDS011;53801;55.786;49.142;2022-11-15T12:09:50;2.57;;;0.67;;
66893;SDS011;53801;55.786;49.142;2022-11-15T12:17:12;3.40;;;0.90;;
66893;SDS011;53801;55.786;49.142;2022-11-15T12:19:38;3.87;;;1.00;;
66893;SDS011;53801;55.786;49.142;2022-11-15T12:22:23;4.15;;;0.90;;
66893;SDS011;53801;55.786;49.142;2022-11-15T12:27:29;3.65;;;1.00;;
66893;SDS011;53801;55.786;49.142;2022-11-15T12:29:57;4.68;;;1.67;;
66893;SDS011;53801;55.786;49.142;2022-11-15T12:34:51;7.40;;;1.58;;
66893;SDS011;53801;55.786;49.142;2022-11-15T12:45:30;4.87;;;1.40;;
66893;SDS011;53801;55.786;49.142;2022-11-15T12:48:21;3.08;;;0.95;;
66893;SDS011;53801;55.786;49.142;2022-11-15T12:58:45;6.53;;;1.70;;
66893;SDS011;53801;55.786;49.142;2022-11-15T13:04:13;7.75;;;2.08;;
66893;SDS011;53801;55.786;49.142;2022-11-15T13:10:07;5.60;;;1.75;;
66893;SDS011;53801;55.786;49.142;2022-11-15T13:12:49;7.37;;;2.33;;
66893;SDS011;53801;55.786;49.142;2022-11-15T13:14:59;5.55;;;1.98;;
66893;SDS011;53801;55.786;49.142;2022-11-15T13:17:26;13.68;;;2.72;;
66893;SDS011;53801;55.786;49.142;2022-11-15T13:19:55;5.55;;;1.70;;
66893;SDS011;53801;55.786;49.142;2022-11-15T13:22:24;3.88;;;1.25;;
66893;SDS011;53801;55.786;49.142;2022-11-15T13:25:15;5.43;;;1.20;;
66893;SDS011;53801;55.786;49.142;2022-11-15T13:27:45;2.53;;;0.75;;
66893;SDS011;53801;55.786;49.142;2022-11-15T13:30:30;5.32;;;1.20;;
66893;SDS011;53801;55.786;49.142;2022-11-15T13:32:56;6.72;;;0.80;;
66893;SDS011;53801;55.786;49.142;2022-11-15T13:35:27;2.80;;;1.00;;
66893;SDS011;53801;55.786;49.142;2022-11-15T13:37:53;4.73;;;1.40;;
66893;SDS011;53801;55.786;49.142;2022-11-15T13:40:20;7.63;;;2.45;;
66893;SDS011;53801;55.786;49.142;2022-11-15T13:42:47;5.10;;;1.55;;
66893;SDS011;53801;55.786;49.142;2022-11-15T13:45:16;4.00;;;1.20;;
66893;SDS011;53801;55.786;49.142;2022-11-15T13:47:44;2.88;;;0.80;;
66893;SDS011;53801;55.786;49.142;2022-11-15T13:50:10;5.75;;;2.15;;
66893;SDS011;53801;55.786;49.142;2022-11-15T13:52:36;4.05;;;0.90;;
66893;SDS011;53801;55.786;49.142;2022-11-15T13:55:04;3.37;;;1.00;;
66893;SDS011;53801;55.786;49.142;2022-11-15T13:57:45;6.10;;;2.03;;
66893;SDS011;53801;55.786;49.142;2022-11-15T14:00:34;3.92;;;1.23;;
66893;SDS011;53801;55.786;49.142;2022-11-15T14:03:19;3.47;;;0.70;;
66893;SDS011;53801;55.786;49.142;2022-11-15T14:06:02;3.38;;;1.23;;
66893;SDS011;53801;55.786;49.142;2022-11-15T14:08:32;3.33;;;1.03;;
66893;SDS011;53801;55.786;49.142;2022-11-15T14:13:34;5.80;;;1.30;;
66893;SDS011;53801;55.786;49.142;2022-11-15T14:16:21;4.57;;;1.67;;
66893;SDS011;53801;55.786;49.142;2022-11-15T14:18:50;4.97;;;1.30;;
66893;SDS011;53801;55.786;49.142;2022-11-15T14:21:17;5.40;;;1.80;;
66893;SDS011;53801;55.786;49.142;2022-11-15T14:23:43;3.97;;;1.60;;
66893;SDS011;53801;55.786;49.142;2022-11-15T14:28:52;3.53;;;1.23;;
66893;SDS011;53801;55.786;49.142;2022-11-15T14:31:18;4.05;;;1.25;;
66893;SDS011;53801;55.786;49.142;2022-11-15T14:33:46;4.03;;;1.00;;
66893;SDS011;53801;55.786;49.142;2022-11-15T14:36:12;3.25;;;0.93;;
66893;SDS011;53801;55.786;49.142;2022-11-15T14:38:38;3.58;;;0.90;;
66893;SDS011;53801;55.786;49.142;2022-11-15T14:41:08;3.33;;;1.23;;
66893;SDS011;53801;55.786;49.142;2022-11-15T14:43:35;4.22;;;1.60;;
66893;SDS011;53801;55.786;49.142;2022-11-15T14:46:01;2.20;;;0.80;;
66893;SDS011;53801;55.786;49.142;2022-11-15T14:48:26;6.50;;;2.37;;
66893;SDS011;53801;55.786;49.142;2022-11-15T14:50:51;4.47;;;1.50;;
66893;SDS011;53801;55.786;49.142;2022-11-15T14:53:17;2.60;;;0.70;;
66893;SDS011;53801;55.786;49.142;2022-11-15T14:55:43;3.35;;;1.00;;
66893;SDS011;53801;55.786;49.142;2022-11-15T14:58:11;2.20;;;0.77;;
66893;SDS011;53801;55.786;49.142;2022-11-15T15:00:39;2.80;;;0.90;;
66893;SDS011;53801;55.786;49.142;2022-11-15T15:03:05;4.88;;;1.60;;
66893;SDS011;53801;55.786;49.142;2022-11-15T15:05:35;3.93;;;1.10;;
66893;SDS011;53801;55.786;49.142;2022-11-15T15:08:01;3.60;;;1.10;;
66893;SDS011;53801;55.786;49.142;2022-11-15T15:10:32;3.05;;;1.08;;
66893;SDS011;53801;55.786;49.142;2022-11-15T15:13:04;4.47;;;1.50;;
66893;SDS011;53801;55.786;49.142;2022-11-15T15:15:34;4.85;;;1.50;;
66893;SDS011;53801;55.786;49.142;2022-11-15T15:18:20;7.72;;;2.30;;
66893;SDS011;53801;55.786;49.142;2022-11-15T15:20:47;8.17;;;1.50;;
66893;SDS011;53801;55.786;49.142;2022-11-15T15:23:19;3.00;;;0.90;;
66893;SDS011;53801;55.786;49.142;2022-11-15T15:26:25;4.15;;;1.27;;
66893;SDS011;53801;55.786;49.142;2022-11-15T15:29:09;3.55;;;1.30;;
66893;SDS011;53801;55.786;49.142;2022-11-15T15:31:55;3.67;;;1.27;;
66893;SDS011;53801;55.786;49.142;2022-11-15T15:35:07;4.68;;;1.52;;
66893;SDS011;53801;55.786;49.142;2022-11-15T15:37:39;2.20;;;0.75;;
66893;SDS011;53801;55.786;49.142;2022-11-15T15:40:08;2.63;;;0.80;;
66893;SDS011;53801;55.786;49.142;2022-11-15T15:42:45;3.33;;;1.15;;
66893;SDS011;53801;55.786;49.142;2022-11-15T15:48:44;3.95;;;1.27;;
66893;SDS011;53801;55.786;49.142;2022-11-15T15:51:12;4.53;;;1.23;;
66893;SDS011;53801;55.786;49.142;2022-11-15T15:53:55;2.60;;;1.00;;
66893;SDS011;53801;55.786;49.142;2022-11-15T15:56:25;3.55;;;0.80;;
66893;SDS011;53801;55.786;49.142;2022-11-15T15:59:04;3.25;;;1.00;;
66893;SDS011;53801;55.786;49.142;2022-11-15T16:01:52;5.60;;;1.38;;
66893;SDS011;53801;55.786;49.142;2022-11-15T16:07:20;4.73;;;1.57;;
66893;SDS011;53801;55.786;49.142;2022-11-15T16:09:46;4.00;;;1.08;;
66893;SDS011;53801;55.786;49.142;2022-11-15T16:12:44;4.82;;;1.55;;
66893;SDS011;53801;55.786;49.142;2022-11-15T16:15:09;3.35;;;1.00;;
66893;SDS011;53801;55.786;49.142;2022-11-15T16:17:37;5.13;;;1.57;;
66893;SDS011;53801;55.786;49.142;2022-11-15T16:20:03;5.90;;;1.55;;
66893;SDS011;53801;55.786;49.142;2022-11-15T16:22:29;3.28;;;0.80;;
66893;SDS011;53801;55.786;49.142;2022-11-15T16:24:55;4.23;;;1.43;;
66893;SDS011;53801;55.786;49.142;2022-11-15T16:27:20;5.93;;;1.23;;
66893;SDS011;53801;55.786;49.142;2022-11-15T16:29:46;5.90;;;1.58;;
66893;SDS011;53801;55.786;49.142;2022-11-15T16:32:20;7.00;;;1.60;;
66893;SDS011;53801;55.786;49.142;2022-11-15T16:34:46;6.50;;;1.92;;
66893;SDS011;53801;55.786;49.142;2022-11-15T16:37:21;7.37;;;1.30;;
66893;SDS011;53801;55.786;49.142;2022-11-15T16:39:49;4.65;;;1.15;;
66893;SDS011;53801;55.786;49.142;2022-11-15T16:42:14;3.33;;;0.77;;
66893;SDS011;53801;55.786;49.142;2022-11-15T16:44:40;4.50;;;1.08;;
66893;SDS011;53801;55.786;49.142;2022-11-15T16:47:11;4.32;;;1.48;;
66893;SDS011;53801;55.786;49.142;2022-11-15T16:49:41;4.13;;;1.00;;
66893;SDS011;53801;55.786;49.142;2022-11-15T16:52:10;2.70;;;0.90;;
66893;SDS011;53801;55.786;49.142;2022-11-15T16:54:35;2.80;;;0.80;;
66893;SDS011;53801;55.786;49.142;2022-11-15T16:57:01;7.97;;;3.50;;
66893;SDS011;53801;55.786;49.142;2022-11-15T16:59:26;4.63;;;1.30;;
66893;SDS011;53801;55.786;49.142;2022-11-15T17:01:52;4.13;;;1.00;;
66893;SDS011;53801;55.786;49.142;2022-11-15T17:04:18;5.27;;;1.10;;
66893;SDS011;53801;55.786;49.142;2022-11-15T17:06:49;3.00;;;0.60;;
66893;SDS011;53801;55.786;49.142;2022-11-15T17:09:18;3.10;;;1.08;;
66893;SDS011;53801;55.786;49.142;2022-11-15T17:11:44;3.58;;;0.90;;
66893;SDS011;53801;55.786;49.142;2022-11-15T17:14:10;4.10;;;1.20;;
66893;SDS011;53801;55.786;49.142;2022-11-15T17:16:36;4.10;;;1.60;;
66893;SDS011;53801;55.786;49.142;2022-11-15T17:19:13;5.60;;;1.23;;
66893;SDS011;53801;55.786;49.142;2022-11-15T17:21:39;3.95;;;1.02;;
66893;SDS011;53801;55.786;49.142;2022-11-15T17:24:05;5.57;;;1.75;;
66893;SDS011;53801;55.786;49.142;2022-11-15T17:26:30;5.10;;;1.27;;
66893;SDS011;53801;55.786;49.142;2022-11-15T17:28:59;5.23;;;1.13;;
66893;SDS011;53801;55.786;49.142;2022-11-15T17:31:25;6.20;;;1.15;;
66893;SDS011;53801;55.786;49.142;2022-11-15T17:33:51;6.65;;;1.30;;
66893;SDS011;53801;55.786;49.142;2022-11-15T17:36:24;3.20;;;0.87;;
66893;SDS011;53801;55.786;49.142;2022-11-15T17:38:49;4.18;;;0.93;;
66893;SDS011;53801;55.786;49.142;2022-11-15T17:41:17;2.60;;;0.68;;
66893;SDS011;53801;55.786;49.142;2022-11-15T17:43:45;4.65;;;1.10;;
66893;SDS011;53801;55.786;49.142;2022-11-15T17:46:13;4.00;;;1.10;;
66893;SDS011;53801;55.786;49.142;2022-11-15T17:48:39;3.80;;;1.23;;